Time;durP1;ratioP1;P1;durP2;ratioP2;P2;SDS_P1;SDS_P2;PMS_P1;PMS_P2;Temp;Humidity;BMP_temperature;BMP_pressure;BME280_temperature;BME280_humidity;BME280_pressure;Samples;Min_cycle;Max_cycle;Signal;HPM_P1;HPM_P2
2022/07/26 00:00:43;;;;;;;5.80;2.60;;;;;;;18.07;66.84;101257.50;5090016;28;20358;-48
2022/07/26 00:03:09;;;;;;;6.00;1.75;;;;;;;18.09;66.43;101259.03;5082437;28;20032;-46
2022/07/26 00:05:36;;;;;;;4.95;2.00;;;;;;;18.09;66.07;101264.41;5077091;28;20029;-48
2022/07/26 00:08:10;;;;;;;6.50;2.00;;;;;;;17.99;67.24;101265.50;5079515;28;20024;-48
2022/07/26 00:10:38;;;;;;;5.65;1.90;;;;;;;18.04;67.09;101268.56;5073969;28;20033;-45
2022/07/26 00:13:04;;;;;;;9.18;2.67;;;;;;;18.02;67.37;101257.09;5079233;28;20056;-47
2022/07/26 00:15:29;;;;;;;7.07;2.30;;;;;;;18.05;67.03;101267.53;5081982;28;20028;-46
2022/07/26 00:17:55;;;;;;;7.22;2.40;;;;;;;18.03;67.01;101261.50;5083737;28;20025;-45
2022/07/26 00:20:20;;;;;;;7.50;2.03;;;;;;;18.04;67.16;101261.34;5083705;28;20058;-46
2022/07/26 00:22:45;;;;;;;6.35;1.75;;;;;;;18.02;67.28;101259.78;5082635;28;20294;-46
2022/07/26 00:25:11;;;;;;;7.28;3.13;;;;;;;18.01;67.22;101263.50;5081599;28;20129;-46
2022/07/26 00:27:36;;;;;;;6.00;2.00;;;;;;;17.98;67.36;101267.31;5084387;28;20434;-47
2022/07/26 00:30:06;;;;;;;5.30;2.00;;;;;;;17.96;67.86;101268.50;5073719;28;20299;-45
2022/07/26 00:32:32;;;;;;;6.57;1.75;;;;;;;17.93;67.80;101273.16;5084800;28;20040;-46
2022/07/26 00:34:57;;;;;;;5.93;1.98;;;;;;;17.93;67.87;101275.00;5084944;28;20024;-46
2022/07/26 00:37:23;;;;;;;7.73;1.93;;;;;;;17.94;67.29;101272.19;5083626;28;20060;-47
2022/07/26 00:39:49;;;;;;;8.13;2.13;;;;;;;17.91;67.48;101274.34;5080712;28;20343;-46
2022/07/26 00:42:15;;;;;;;6.38;1.92;;;;;;;17.89;68.32;101279.88;5083254;28;20044;-47
2022/07/26 00:44:43;;;;;;;8.60;2.10;;;;;;;17.83;67.57;101271.53;5082238;28;20028;-46
2022/07/26 00:47:08;;;;;;;4.80;1.80;;;;;;;17.88;68.05;101275.47;5079380;28;20020;-47
2022/07/26 00:49:34;;;;;;;6.15;2.15;;;;;;;17.86;68.25;101274.75;5082550;28;20027;-44
2022/07/26 00:51:59;;;;;;;9.18;2.35;;;;;;;17.85;68.62;101274.91;5117542;22;20044;-45
2022/07/26 00:54:24;;;;;;;5.05;2.13;;;;;;;17.87;68.21;101276.50;5077361;28;20623;-45
2022/07/26 00:56:51;;;;;;;8.25;2.28;;;;;;;17.85;68.11;101273.09;5087636;28;20028;-46
2022/07/26 00:59:17;;;;;;;9.35;2.72;;;;;;;17.82;68.67;101281.47;5090862;28;20016;-46
2022/07/26 01:01:42;;;;;;;8.90;2.15;;;;;;;17.83;68.93;101274.22;5080607;28;20043;-48
2022/07/26 01:04:07;;;;;;;8.40;2.20;;;;;;;17.77;69.32;101281.06;5084479;28;20389;-46
2022/07/26 01:06:33;;;;;;;7.65;2.10;;;;;;;17.76;69.29;101274.84;5090332;28;20604;-45
2022/07/26 01:08:59;;;;;;;9.15;2.45;;;;;;;17.75;69.10;101272.31;5086340;28;20021;-46
2022/07/26 01:11:24;;;;;;;8.77;2.65;;;;;;;17.78;69.33;101272.00;5082386;28;20535;-46
2022/07/26 01:13:50;;;;;;;7.07;2.30;;;;;;;17.79;69.42;101275.56;5090066;28;20024;-47
2022/07/26 01:16:16;;;;;;;6.30;2.63;;;;;;;17.79;69.46;101276.38;5082865;28;20020;-45
2022/07/26 01:18:41;;;;;;;12.43;2.67;;;;;;;17.75;70.15;101270.47;5088232;28;20031;-46
2022/07/26 01:21:09;;;;;;;12.75;2.75;;;;;;;17.74;69.94;101257.19;5090995;28;20395;-46
2022/07/26 01:23:35;;;;;;;9.25;2.45;;;;;;;17.72;70.29;101257.34;5081938;28;20037;-46
2022/07/26 01:26:01;;;;;;;7.75;2.50;;;;;;;17.71;70.07;101261.03;5090565;28;20523;-45
2022/07/26 01:28:27;;;;;;;8.52;2.00;;;;;;;17.75;70.70;101258.88;5090087;28;20039;-46
2022/07/26 01:30:52;;;;;;;9.85;2.60;;;;;;;17.75;70.64;101254.38;5090327;28;20028;-46
2022/07/26 01:33:17;;;;;;;11.63;2.72;;;;;;;17.73;70.73;101256.34;5084455;28;20038;-46
2022/07/26 01:35:43;;;;;;;8.63;2.33;;;;;;;17.75;71.56;101256.19;5087970;28;20030;-46
2022/07/26 01:38:08;;;;;;;9.10;2.58;;;;;;;17.76;71.47;101255.19;5090485;28;20420;-45
2022/07/26 01:40:33;;;;;;;7.20;2.28;;;;;;;17.74;72.22;101244.59;5090491;28;20489;-45
2022/07/26 01:42:59;;;;;;;9.77;2.83;;;;;;;17.76;72.02;101252.50;5089789;28;20031;-47
2022/07/26 01:45:24;;;;;;;8.03;2.43;;;;;;;17.77;72.33;101256.91;5090348;28;20016;-46
2022/07/26 01:47:49;;;;;;;10.82;2.70;;;;;;;17.75;73.18;101267.78;5090136;28;20330;-46
2022/07/26 01:50:16;;;;;;;11.93;2.80;;;;;;;17.74;72.61;101271.47;5089806;28;20390;-47
2022/07/26 01:52:42;;;;;;;17.05;3.47;;;;;;;17.75;72.58;101267.78;5071797;28;20385;-45
2022/07/26 01:55:08;;;;;;;7.20;2.78;;;;;;;17.76;71.96;101268.63;5084660;28;20028;-45
2022/07/26 01:57:33;;;;;;;11.98;3.35;;;;;;;17.78;72.36;101268.47;5085085;28;20028;-45
2022/07/26 01:59:58;;;;;;;9.32;2.70;;;;;;;17.79;73.20;101264.81;5090111;28;20454;-45
2022/07/26 02:02:24;;;;;;;8.23;2.60;;;;;;;17.79;72.54;101273.69;5090172;28;20035;-46
2022/07/26 02:04:58;;;;;;;13.00;3.33;;;;;;;17.76;73.10;101264.09;5080707;28;20036;-46
2022/07/26 02:07:35;;;;;;;10.63;2.92;;;;;;;17.78;72.18;101272.00;5090215;28;20469;-46
2022/07/26 02:10:01;;;;;;;12.30;3.08;;;;;;;17.78;72.67;101273.84;5089254;28;20024;-46
2022/07/26 02:12:26;;;;;;;15.48;3.63;;;;;;;17.77;72.78;101275.72;5090155;28;20081;-46
2022/07/26 02:14:51;;;;;;;10.07;2.67;;;;;;;17.76;73.36;101274.84;5089970;28;20027;-46
2022/07/26 02:17:17;;;;;;;9.90;3.03;;;;;;;17.75;73.23;101270.47;5089500;28;20370;-46
2022/07/26 02:19:42;;;;;;;13.48;3.00;;;;;;;17.77;72.99;101264.97;5090122;28;20039;-46
2022/07/26 02:22:07;;;;;;;11.70;3.15;;;;;;;17.75;73.78;101272.31;5090084;28;20032;-48
2022/07/26 02:24:33;;;;;;;15.77;3.83;;;;;;;17.79;73.23;101273.69;5087119;28;20163;-46
2022/07/26 02:27:00;;;;;;;13.25;3.67;;;;;;;17.79;73.15;101278.25;5088214;28;20098;-47
2022/07/26 02:29:26;;;;;;;12.30;3.38;;;;;;;17.76;73.24;101274.84;5088137;28;20028;-48
2022/07/26 02:31:52;;;;;;;12.45;3.03;;;;;;;17.76;73.88;101280.22;5087085;28;20028;-47
2022/07/26 02:34:18;;;;;;;13.15;3.70;;;;;;;17.76;73.09;101282.91;5089010;28;20028;-47
2022/07/26 02:36:43;;;;;;;12.00;3.42;;;;;;;17.75;73.91;101283.91;5089827;28;20027;-45
2022/07/26 02:39:09;;;;;;;7.10;2.92;;;;;;;17.74;73.54;101284.91;5090098;28;20024;-46
2022/07/26 02:41:34;;;;;;;9.88;3.05;;;;;;;17.74;74.04;101281.38;5091145;28;20417;-45
2022/07/26 02:43:59;;;;;;;13.35;3.92;;;;;;;17.72;73.96;101289.59;5093358;28;20112;-45
2022/07/26 02:46:25;;;;;;;13.67;3.90;;;;;;;17.72;74.19;101289.59;5093887;28;20036;-46
2022/07/26 02:48:50;;;;;;;16.75;3.70;;;;;;;17.74;74.66;101289.44;5085429;28;20652;-47
2022/07/26 02:51:16;;;;;;;10.00;3.50;;;;;;;17.70;74.53;101293.41;5093487;28;20530;-46
2022/07/26 02:53:41;;;;;;;13.63;3.95;;;;;;;17.68;74.68;101290.03;5084302;28;20045;-46
2022/07/26 02:56:07;;;;;;;12.98;3.40;;;;;;;17.67;75.03;101301.78;5092143;28;20020;-46
2022/07/26 02:58:32;;;;;;;16.02;4.30;;;;;;;17.70;75.01;101288.03;5090816;28;20063;-48
2022/07/26 03:00:57;;;;;;;16.85;4.10;;;;;;;17.68;75.05;101296.25;5090390;28;20089;-48
2022/07/26 03:03:23;;;;;;;13.73;3.63;;;;;;;17.67;74.77;101302.66;5093174;28;20024;-46
2022/07/26 03:05:48;;;;;;;15.07;4.25;;;;;;;17.64;75.23;101302.09;5093179;28;20056;-46
2022/07/26 03:08:13;;;;;;;15.38;4.40;;;;;;;17.64;75.52;101305.63;5093105;28;20024;-45
2022/07/26 03:10:39;;;;;;;15.68;4.75;;;;;;;17.64;75.69;101310.16;5088557;28;20043;-46
2022/07/26 03:13:04;;;;;;;15.88;4.00;;;;;;;17.65;75.12;101310.03;5093493;28;20031;-47
2022/07/26 03:15:30;;;;;;;17.20;4.40;;;;;;;17.63;76.05;101316.53;5093141;28;20762;-47
2022/07/26 03:17:55;;;;;;;15.95;4.07;;;;;;;17.59;76.58;101307.09;5092211;28;20294;-46
2022/07/26 03:20:21;;;;;;;18.27;4.30;;;;;;;17.59;76.21;101309.78;5093235;28;20032;-46
2022/07/26 03:22:46;;;;;;;13.10;3.88;;;;;;;17.62;75.90;101320.19;5092934;28;20363;-46
2022/07/26 03:25:13;;;;;;;15.23;4.53;;;;;;;17.61;76.28;101321.22;5092475;28;20032;-47
2022/07/26 03:27:38;;;;;;;18.05;4.40;;;;;;;17.60;76.14;101322.19;5089553;28;20297;-47
2022/07/26 03:30:05;;;;;;;15.13;4.55;;;;;;;17.60;76.18;101324.88;5092683;28;20089;-47
2022/07/26 03:32:31;;;;;;;15.93;4.90;;;;;;;17.61;76.55;101324.72;5091556;28;20107;-48
2022/07/26 03:34:56;;;;;;;14.45;4.10;;;;;;;17.63;76.26;101332.63;5092611;28;20135;-48
2022/07/26 03:37:22;;;;;;;14.67;3.87;;;;;;;17.62;76.21;101334.50;5088075;28;20115;-48
2022/07/26 03:39:48;;;;;;;12.32;3.80;;;;;;;17.61;76.29;101337.31;5091300;28;20270;-47
2022/07/26 03:42:13;;;;;;;14.27;4.72;;;;;;;17.59;76.40;101337.47;5092033;28;20435;-47
2022/07/26 03:44:39;;;;;;;15.30;4.20;;;;;;;17.61;76.60;101337.31;5074813;28;20035;-49
2022/07/26 03:47:04;;;;;;;12.98;3.97;;;;;;;17.62;76.34;101344.38;5092796;28;20060;-46
2022/07/26 03:49:29;;;;;;;15.55;4.38;;;;;;;17.59;76.96;101334.78;5082370;28;20469;-46
2022/07/26 03:51:55;;;;;;;16.30;4.65;;;;;;;17.59;77.01;101332.09;5091304;28;20048;-45
2022/07/26 03:54:21;;;;;;;13.60;4.00;;;;;;;17.60;76.48;101343.69;5087360;28;20024;-48
2022/07/26 03:56:46;;;;;;;12.98;4.10;;;;;;;17.56;77.36;101343.97;5092233;28;20073;-46
2022/07/26 03:59:11;;;;;;;15.60;4.17;;;;;;;17.61;76.71;101340.84;5092087;28;20059;-48
2022/07/26 04:01:40;;;;;;;13.05;4.47;;;;;;;17.60;77.24;101346.38;5092268;28;20517;-47
2022/07/26 04:04:07;;;;;;;16.92;4.60;;;;;;;17.59;76.92;101350.91;5085217;28;20035;-46
2022/07/26 04:06:32;;;;;;;12.40;4.45;;;;;;;17.62;76.76;101341.69;5091933;28;20020;-47
2022/07/26 04:08:58;;;;;;;15.35;4.88;;;;;;;17.61;76.92;101346.22;5087610;28;20514;-45
2022/07/26 04:11:23;;;;;;;13.48;4.15;;;;;;;17.65;77.13;101346.75;5092138;28;20221;-47
2022/07/26 04:13:48;;;;;;;17.13;5.05;;;;;;;17.64;76.83;101345.91;5085471;28;20032;-49
2022/07/26 04:16:13;;;;;;;15.13;4.23;;;;;;;17.64;76.72;101351.28;5092063;28;20106;-47
2022/07/26 04:18:39;;;;;;;18.70;4.75;;;;;;;17.64;77.37;101342.41;5085498;28;20299;-46
2022/07/26 04:21:04;;;;;;;12.15;4.15;;;;;;;17.62;77.54;101344.38;5088832;28;20076;-47
2022/07/26 04:23:29;;;;;;;13.40;4.40;;;;;;;17.66;77.12;101348.47;5090401;28;20077;-46
2022/07/26 04:25:55;;;;;;;15.48;4.68;;;;;;;17.65;77.71;101360.19;5088222;28;20031;-47
2022/07/26 04:28:20;;;;;;;15.55;4.78;;;;;;;17.68;77.40;101360.72;5091731;28;20060;-47
2022/07/26 04:30:45;;;;;;;15.65;4.88;;;;;;;17.69;77.06;101358.91;5091190;28;20027;-49
2022/07/26 04:33:11;;;;;;;18.45;5.25;;;;;;;17.68;77.23;101363.41;5091513;28;20027;-49
2022/07/26 04:35:36;;;;;;;17.17;4.05;;;;;;;17.71;77.24;101367.66;5090733;28;20024;-47
2022/07/26 04:38:02;;;;;;;14.20;4.22;;;;;;;17.70;77.54;101371.31;5091635;28;20394;-46
2022/07/26 04:40:32;;;;;;;12.25;4.07;;;;;;;17.70;77.74;101364.13;5091828;28;20079;-50
2022/07/26 04:42:58;;;;;;;20.10;4.80;;;;;;;17.69;78.09;101366.97;5091552;28;20076;-50
2022/07/26 04:45:23;;;;;;;16.40;4.82;;;;;;;17.71;77.24;101365.81;5079124;28;20466;-46
2022/07/26 04:47:49;;;;;;;12.00;3.97;;;;;;;17.73;77.60;101363.81;5091686;28;20032;-46
2022/07/26 04:50:15;;;;;;;16.35;5.22;;;;;;;17.75;77.69;101363.66;5087848;28;20029;-47
2022/07/26 04:52:41;;;;;;;14.68;4.65;;;;;;;17.77;77.43;101361.69;5091281;28;20569;-48
2022/07/26 04:55:08;;;;;;;15.50;4.35;;;;;;;17.79;77.09;101380.34;5082966;28;20044;-47
2022/07/26 04:57:33;;;;;;;13.77;4.43;;;;;;;17.80;77.22;101368.56;5090428;28;20024;-48
2022/07/26 04:59:58;;;;;;;16.95;4.75;;;;;;;17.78;77.87;101378.63;5090984;28;20027;-46
2022/07/26 05:02:24;;;;;;;18.33;4.55;;;;;;;17.76;77.99;101379.63;5090075;28;20024;-45
2022/07/26 05:04:49;;;;;;;14.27;4.28;;;;;;;17.78;77.98;101384.84;5088285;28;20509;-48
2022/07/26 05:07:14;;;;;;;14.97;4.67;;;;;;;17.82;77.63;101375.50;5084631;28;20024;-49
2022/07/26 05:09:39;;;;;;;14.88;4.30;;;;;;;17.85;77.32;101377.03;5082300;28;20273;-47
2022/07/26 05:12:05;;;;;;;15.27;4.50;;;;;;;17.88;77.67;101382.97;5090559;28;20028;-48
2022/07/26 05:14:30;;;;;;;17.48;4.97;;;;;;;17.88;77.87;101380.28;5084268;28;20298;-48
2022/07/26 05:16:56;;;;;;;16.73;4.60;;;;;;;17.90;77.68;101385.50;5090343;28;20462;-47
2022/07/26 05:19:21;;;;;;;18.80;4.63;;;;;;;17.92;77.39;101386.22;5089197;28;20286;-46
2022/07/26 05:21:46;;;;;;;16.85;4.65;;;;;;;17.94;77.91;101389.59;5090581;28;20794;-49
2022/07/26 05:24:11;;;;;;;11.90;4.17;;;;;;;17.96;77.66;101394.81;5088319;28;20391;-46
2022/07/26 05:26:37;;;;;;;11.80;3.97;;;;;;;17.98;77.82;101398.19;5090434;28;20372;-49
2022/07/26 05:29:02;;;;;;;16.48;4.22;;;;;;;18.04;77.32;101405.66;5088924;28;20024;-47
2022/07/26 05:31:27;;;;;;;15.25;4.57;;;;;;;18.10;78.15;101405.00;5088502;28;20031;-47
2022/07/26 05:33:54;;;;;;;14.43;4.43;;;;;;;18.17;77.57;101406.13;5090585;28;20028;-49
2022/07/26 05:36:19;;;;;;;11.15;4.30;;;;;;;18.28;77.27;101411.22;5088495;28;20033;-46
2022/07/26 05:38:45;;;;;;;13.15;4.85;;;;;;;18.38;76.64;101410.31;5088789;28;20481;-47
2022/07/26 05:41:10;;;;;;;13.98;4.03;;;;;;;18.51;76.36;101404.56;5084498;28;20024;-48
2022/07/26 05:43:36;;;;;;;17.35;4.50;;;;;;;18.66;76.17;101403.81;5090028;28;20020;-48
2022/07/26 05:46:02;;;;;;;12.43;4.72;;;;;;;18.76;75.44;101414.47;5089465;28;20024;-46
2022/07/26 05:48:27;;;;;;;13.68;4.60;;;;;;;18.96;74.95;101409.78;5090366;28;20031;-46
2022/07/26 05:50:52;;;;;;;16.33;4.88;;;;;;;19.14;74.09;101414.25;5084476;28;20477;-47
2022/07/26 05:53:18;;;;;;;16.15;4.00;;;;;;;19.22;73.56;101412.44;5089943;28;20056;-46
2022/07/26 05:55:43;;;;;;;8.23;4.05;;;;;;;19.34;73.18;101421.09;5089212;28;20023;-46
2022/07/26 05:58:09;;;;;;;13.47;3.70;;;;;;;19.49;72.37;101420.50;5090207;28;20028;-46
2022/07/26 06:00:34;;;;;;;11.77;3.77;;;;;;;19.51;72.47;101419.31;5089821;28;20285;-48
2022/07/26 06:03:20;;;;;;;9.68;4.05;;;;;;;19.56;71.61;101418.81;5084949;28;20655;-48
2022/07/26 06:05:45;;;;;;;14.07;4.05;;;;;;;19.64;70.32;101421.56;5089696;28;20043;-47
2022/07/26 06:08:10;;;;;;;10.23;4.20;;;;;;;19.65;69.86;101423.25;5090167;28;20024;-49
2022/07/26 06:10:35;;;;;;;15.23;4.03;;;;;;;19.77;69.57;101421.13;5089099;28;20274;-49
2022/07/26 06:13:00;;;;;;;18.63;4.43;;;;;;;19.93;69.05;101433.78;5083338;28;20656;-48
2022/07/26 06:15:26;;;;;;;11.40;3.70;;;;;;;20.02;68.55;101422.03;5087420;28;20297;-46
2022/07/26 06:17:51;;;;;;;11.10;4.43;;;;;;;20.14;67.96;101428.78;5086855;28;20286;-47
2022/07/26 06:20:16;;;;;;;12.00;3.70;;;;;;;20.30;68.14;101432.50;5087112;28;20302;-46
2022/07/26 06:22:41;;;;;;;10.73;3.67;;;;;;;20.34;67.32;101425.78;5087704;28;20308;-47
2022/07/26 06:25:07;;;;;;;10.88;3.40;;;;;;;20.57;67.98;101434.03;5090545;28;20289;-46
2022/07/26 06:27:32;;;;;;;12.57;3.83;;;;;;;20.70;66.42;101439.81;5091823;28;20121;-46
2022/07/26 06:29:57;;;;;;;9.97;3.10;;;;;;;20.88;66.69;101436.91;5092509;28;20024;-47
2022/07/26 06:32:23;;;;;;;9.47;3.50;;;;;;;20.99;65.74;101437.56;5091921;28;20292;-46
2022/07/26 06:34:48;;;;;;;10.90;3.33;;;;;;;21.03;63.87;101433.50;5092377;28;20274;-48
2022/07/26 06:37:13;;;;;;;10.53;3.20;;;;;;;21.12;63.41;101439.75;5089129;28;20298;-49
2022/07/26 06:39:38;;;;;;;11.90;3.00;;;;;;;21.26;62.88;101444.41;5092849;28;20278;-47
2022/07/26 06:42:04;;;;;;;11.03;3.50;;;;;;;21.38;62.67;101442.19;5089783;28;20779;-47
2022/07/26 06:44:29;;;;;;;9.68;3.10;;;;;;;21.49;62.88;101444.53;5092761;28;20274;-47
2022/07/26 06:46:54;;;;;;;11.10;3.17;;;;;;;21.65;62.28;101437.38;5092324;28;20032;-46
2022/07/26 06:49:19;;;;;;;9.03;3.27;;;;;;;21.74;61.98;101447.97;5088084;28;20858;-46
2022/07/26 06:51:45;;;;;;;13.57;3.00;;;;;;;21.97;62.13;101448.03;5087408;28;20419;-48
2022/07/26 06:54:10;;;;;;;9.68;2.78;;;;;;;22.11;61.17;101449.13;5090212;28;20308;-47
2022/07/26 06:56:35;;;;;;;14.48;2.95;;;;;;;22.27;60.76;101453.59;5080831;28;20074;-48
2022/07/26 06:59:01;;;;;;;9.00;2.93;;;;;;;22.42;59.78;101456.38;5088876;28;20451;-48
2022/07/26 07:01:26;;;;;;;6.63;2.47;;;;;;;22.51;58.54;101458.00;5090728;28;20298;-49
2022/07/26 07:03:51;;;;;;;11.55;2.88;;;;;;;22.63;58.63;101453.00;5089523;28;20747;-47
2022/07/26 07:06:16;;;;;;;9.87;2.77;;;;;;;22.67;58.33;101459.72;5091862;28;20359;-47
2022/07/26 07:08:42;;;;;;;5.38;2.17;;;;;;;22.68;57.67;101464.13;5092119;28;20263;-46
2022/07/26 07:11:07;;;;;;;9.83;2.10;;;;;;;22.71;57.63;101465.63;5090479;28;20034;-46
2022/07/26 07:13:32;;;;;;;5.15;2.08;;;;;;;22.80;57.87;101469.09;5091601;28;20274;-47
2022/07/26 07:15:57;;;;;;;5.80;2.10;;;;;;;22.80;56.21;101474.50;5092805;28;20473;-48
2022/07/26 07:18:23;;;;;;;10.03;2.37;;;;;;;22.89;57.16;101465.28;5092991;28;20278;-47
2022/07/26 07:20:48;;;;;;;6.03;2.00;;;;;;;22.76;55.56;101471.34;5087698;28;20296;-45
2022/07/26 07:23:13;;;;;;;11.30;2.67;;;;;;;22.78;56.51;101471.16;5090603;28;20289;-45
2022/07/26 07:25:39;;;;;;;10.82;2.97;;;;;;;22.67;56.23;101473.28;5092317;28;20353;-48
2022/07/26 07:28:04;;;;;;;5.68;1.73;;;;;;;22.65;56.50;101471.75;5091625;28;20409;-48
2022/07/26 07:30:29;;;;;;;9.20;2.25;;;;;;;22.75;55.95;101471.50;5092099;28;20040;-48
2022/07/26 07:32:55;;;;;;;5.90;2.13;;;;;;;22.88;56.31;101467.19;5092372;28;20467;-45
2022/07/26 07:35:20;;;;;;;8.02;2.13;;;;;;;23.08;56.12;101478.34;5092706;28;20321;-47
2022/07/26 07:37:45;;;;;;;6.43;1.90;;;;;;;23.19;55.41;101470.78;5088647;28;20025;-48
2022/07/26 07:40:11;;;;;;;8.37;2.27;;;;;;;23.07;54.56;101468.53;5091324;28;20674;-47
2022/07/26 07:42:37;;;;;;;7.97;2.15;;;;;;;22.87;54.77;101470.91;5092813;28;20286;-46
2022/07/26 07:45:03;;;;;;;7.90;1.80;;;;;;;22.92;55.38;101478.47;5074295;28;20047;-45
2022/07/26 07:47:32;;;;;;;5.60;1.88;;;;;;;23.15;54.82;101483.00;5079941;28;20024;-47
2022/07/26 07:49:57;;;;;;;7.22;2.30;;;;;;;23.44;53.89;101479.50;5092933;28;20028;-44
2022/07/26 07:52:23;;;;;;;8.47;2.17;;;;;;;23.62;53.69;101471.81;5090363;28;20055;-48
2022/07/26 07:54:48;;;;;;;7.40;1.70;;;;;;;23.54;53.10;101471.06;5092557;28;20282;-47
2022/07/26 07:57:13;;;;;;;7.40;1.92;;;;;;;23.41;54.26;101475.25;5091735;28;20459;-47
2022/07/26 07:59:39;;;;;;;6.80;1.90;;;;;;;23.29;53.31;101474.06;5084045;28;20411;-45
2022/07/26 08:02:05;;;;;;;9.25;1.90;;;;;;;23.23;54.02;101478.38;5073116;28;20031;-46
2022/07/26 08:04:30;;;;;;;10.20;2.20;;;;;;;23.14;53.62;101476.75;5076792;28;20055;-45
2022/07/26 08:06:55;;;;;;;9.43;2.10;;;;;;;23.17;54.20;101484.53;5086567;28;20027;-45
2022/07/26 08:09:21;;;;;;;6.03;2.27;;;;;;;23.07;54.63;101492.91;5089008;28;20016;-48
2022/07/26 08:11:46;;;;;;;8.00;2.33;;;;;;;23.03;55.47;101494.28;5087442;28;20318;-46
2022/07/26 08:14:11;;;;;;;7.88;2.40;;;;;;;22.96;57.17;101500.63;5089030;28;20285;-46
2022/07/26 08:16:37;;;;;;;5.73;2.20;;;;;;;22.82;58.66;101510.41;5085957;28;20020;-46
2022/07/26 08:19:02;;;;;;;4.32;1.90;;;;;;;22.59;59.24;101510.41;5087865;28;20278;-46
2022/07/26 08:21:28;;;;;;;3.45;1.13;;;;;;;22.48;60.11;101509.81;5088586;28;20375;-47
2022/07/26 08:23:53;;;;;;;3.55;1.00;;;;;;;22.38;60.53;101524.59;5090614;28;20020;-47
2022/07/26 08:26:18;;;;;;;3.10;1.20;;;;;;;22.27;62.24;101528.53;5090447;28;20382;-46
2022/07/26 08:28:44;;;;;;;5.28;1.00;;;;;;;22.21;62.93;101531.94;5088228;28;20285;-48
2022/07/26 08:31:09;;;;;;;3.17;1.27;;;;;;;22.21;60.82;101537.34;5089475;28;20115;-46
2022/07/26 08:33:34;;;;;;;0.75;0.75;;;;;;;22.17;61.56;101535.00;5090453;28;20294;-45
2022/07/26 08:35:59;;;;;;;0.88;0.40;;;;;;;22.02;60.97;101533.22;5087695;28;20016;-45
2022/07/26 08:38:25;;;;;;;2.80;0.80;;;;;;;21.96;61.87;101537.47;5089779;28;20036;-46
2022/07/26 08:40:50;;;;;;;2.37;1.00;;;;;;;21.96;62.76;101532.88;5089474;28;20016;-46
2022/07/26 08:43:15;;;;;;;1.20;0.63;;;;;;;22.11;63.45;101532.97;5090548;28;20620;-45
2022/07/26 08:45:41;;;;;;;0.83;0.50;;;;;;;22.06;63.05;101543.50;5088825;28;20286;-47
2022/07/26 08:48:06;;;;;;;0.73;0.65;;;;;;;22.39;62.63;101537.94;5087453;28;20536;-45
2022/07/26 08:50:32;;;;;;;2.70;0.57;;;;;;;22.67;61.09;101540.97;5090647;28;20016;-45
2022/07/26 08:53:00;;;;;;;2.22;0.55;;;;;;;22.73;60.33;101540.25;5089398;28;20051;-45
2022/07/26 08:55:26;;;;;;;2.03;0.70;;;;;;;22.70;58.98;101540.63;5090794;28;20107;-46
2022/07/26 08:57:52;;;;;;;0.52;0.43;;;;;;;22.64;58.92;101541.31;5089808;28;20112;-48
2022/07/26 09:00:23;;;;;;;3.00;0.60;;;;;;;22.70;59.42;101543.31;5087881;28;20031;-47
2022/07/26 09:02:49;;;;;;;2.03;0.55;;;;;;;22.65;59.20;101545.72;5080791;28;20024;-46
2022/07/26 09:05:17;;;;;;;1.00;0.65;;;;;;;22.82;59.63;101548.31;5088647;28;20035;-46
2022/07/26 09:07:44;;;;;;;1.80;0.77;;;;;;;23.12;58.20;101543.84;5089600;28;20031;-45
2022/07/26 09:10:12;;;;;;;0.47;0.47;;;;;;;23.50;56.99;101538.41;5085234;28;20024;-45
2022/07/26 09:12:38;;;;;;;1.10;1.00;;;;;;;23.66;55.76;101548.19;5090561;28;20024;-46
2022/07/26 09:15:06;;;;;;;1.05;0.90;;;;;;;23.79;55.87;101545.66;5088231;28;20039;-45
2022/07/26 09:17:39;;;;;;;0.93;0.80;;;;;;;23.75;54.83;101544.38;5090446;28;20016;-45
2022/07/26 09:20:26;;;;;;;1.10;0.70;;;;;;;23.87;55.69;101543.94;5082154;28;20028;-45
2022/07/26 09:23:04;;;;;;;1.35;0.70;;;;;;;23.82;55.21;101549.94;5087419;28;20035;-45
2022/07/26 09:25:35;;;;;;;4.95;0.85;;;;;;;23.83;54.75;101552.44;5090309;28;20032;-47
2022/07/26 09:28:02;;;;;;;3.30;0.90;;;;;;;23.66;55.49;101556.34;5088610;28;20082;-50
2022/07/26 09:30:30;;;;;;;4.88;0.75;;;;;;;23.51;57.09;101563.63;5090776;28;20047;-45
2022/07/26 09:33:04;;;;;;;2.15;1.60;;;;;;;23.45;55.25;101566.06;5090514;28;20028;-46
2022/07/26 09:35:33;;;;;;;1.50;1.40;;;;;;;23.12;55.87;101560.13;5085871;28;20028;-46
2022/07/26 09:37:58;;;;;;;2.92;0.93;;;;;;;23.07;56.43;101571.50;5090071;28;20051;-45
2022/07/26 09:40:32;;;;;;;4.25;0.90;;;;;;;23.00;56.98;101575.06;5090040;28;20157;-44
2022/07/26 09:43:03;;;;;;;4.97;1.10;;;;;;;22.94;56.34;101578.53;5084853;28;20104;-45
2022/07/26 09:45:30;;;;;;;7.20;1.48;;;;;;;23.21;56.24;101585.25;5089124;28;20107;-46
2022/07/26 09:47:56;;;;;;;2.95;1.35;;;;;;;23.23;54.85;101586.78;5088670;28;20374;-46
2022/07/26 09:50:27;;;;;;;2.53;1.10;;;;;;;23.27;55.75;101585.38;5088144;28;20057;-45
2022/07/26 09:53:01;;;;;;;5.30;1.98;;;;;;;23.04;55.08;101585.38;5088843;28;20071;-45
2022/07/26 09:55:27;;;;;;;5.25;1.42;;;;;;;23.00;55.13;101594.03;5088529;28;20048;-46
2022/07/26 09:57:53;;;;;;;4.80;1.45;;;;;;;22.97;56.31;101589.00;5088725;28;20448;-47
2022/07/26 10:00:18;;;;;;;4.28;1.25;;;;;;;23.09;56.06;101591.09;5088430;28;20020;-45
2022/07/26 10:02:43;;;;;;;6.15;2.10;;;;;;;23.19;56.52;101592.75;5088911;28;20502;-46
2022/07/26 10:05:09;;;;;;;2.60;1.30;;;;;;;23.09;55.10;101591.09;5088786;28;20051;-46
2022/07/26 10:07:35;;;;;;;5.15;1.70;;;;;;;23.01;55.50;101593.84;5088761;28;20009;-46
2022/07/26 10:10:06;;;;;;;3.42;1.00;;;;;;;22.92;54.70;101601.22;5080245;28;20474;-45
2022/07/26 10:12:32;;;;;;;1.63;0.82;;;;;;;22.89;55.85;101606.97;5084497;28;20020;-45
2022/07/26 10:14:57;;;;;;;2.30;0.90;;;;;;;22.83;57.85;101612.28;5088515;28;20326;-47
2022/07/26 10:17:25;;;;;;;1.00;0.60;;;;;;;22.70;58.14;101616.44;5083455;28;20052;-46
2022/07/26 10:19:52;;;;;;;1.52;0.75;;;;;;;22.58;57.42;101617.84;5088997;28;20298;-46
2022/07/26 10:22:40;;;;;;;2.35;0.95;;;;;;;22.57;58.25;101620.75;5085182;28;20028;-45
2022/07/26 10:25:17;;;;;;;2.65;1.00;;;;;;;22.53;59.95;101625.66;5084485;28;20390;-45
2022/07/26 10:27:46;;;;;;;3.40;1.30;;;;;;;22.43;60.27;101627.75;5086772;28;20383;-47
2022/07/26 10:30:21;;;;;;;2.28;1.40;;;;;;;22.50;60.66;101636.88;5079333;28;20032;-45
2022/07/26 10:32:55;;;;;;;4.35;1.20;;;;;;;22.70;59.79;101627.25;5086458;28;20032;-46
2022/07/26 10:35:39;;;;;;;5.40;1.20;;;;;;;22.88;58.71;101620.72;5088507;28;20662;-46
2022/07/26 10:38:10;;;;;;;3.00;1.08;;;;;;;22.96;57.12;101628.78;5078087;28;20044;-45
2022/07/26 10:40:37;;;;;;;4.50;0.90;;;;;;;23.02;56.19;101628.06;5087767;28;20040;-45
2022/07/26 10:43:08;;;;;;;2.72;0.90;;;;;;;23.23;56.41;101629.28;5078815;28;20171;-44
2022/07/26 10:45:33;;;;;;;3.45;0.95;;;;;;;23.48;55.31;101629.91;5087159;28;20089;-45
2022/07/26 10:48:17;;;;;;;1.45;0.70;;;;;;;23.69;55.15;101631.91;5090301;28;20016;-46
2022/07/26 10:50:46;;;;;;;3.30;1.02;;;;;;;23.67;53.42;101633.97;5078934;28;20028;-45
2022/07/26 10:53:20;;;;;;;3.17;1.20;;;;;;;23.78;51.93;101633.53;5088283;28;20086;-45
2022/07/26 10:55:51;;;;;;;4.43;0.90;;;;;;;23.78;52.46;101633.53;5090723;28;20470;-46
2022/07/26 10:58:16;;;;;;;1.48;0.73;;;;;;;23.89;52.85;101639.53;5088503;28;20047;-45
2022/07/26 11:00:54;;;;;;;3.22;0.57;;;;;;;24.22;52.37;101641.88;5087629;28;20092;-46
2022/07/26 11:03:20;;;;;;;2.47;0.57;;;;;;;24.30;50.36;101644.50;5094916;28;20552;-45
2022/07/26 11:05:45;;;;;;;2.83;0.77;;;;;;;24.29;50.77;101637.38;5091058;28;20050;-45
2022/07/26 11:08:11;;;;;;;1.23;0.65;;;;;;;24.27;51.20;101648.41;5085324;28;20381;-45
2022/07/26 11:10:46;;;;;;;1.75;0.55;;;;;;;24.28;50.79;101665.53;5084561;28;20040;-46
2022/07/26 11:13:11;;;;;;;3.95;0.95;;;;;;;24.06;52.48;101665.44;5089436;28;20105;-46
2022/07/26 11:15:42;;;;;;;5.70;1.17;;;;;;;23.92;55.78;101666.31;5088649;28;20411;-47
2022/07/26 11:18:17;;;;;;;1.42;0.47;;;;;;;23.81;57.51;101673.84;5086981;28;20454;-46